Time;durP1;ratioP1;P1;durP2;ratioP2;P2;SDS_P1;SDS_P2;PMS_P1;PMS_P2;Temp;Humidity;BMP_temperature;BMP_pressure;BME280_temperature;BME280_humidity;BME280_pressure;Samples;Min_cycle;Max_cycle;Signal;HPM_P1;HPM_P2
2023/03/25 00:01:15;;;;;;;;;2.50;1.50;;;;;12.04;58.72;100845.69;2045195;28;2735702;-76
2023/03/25 00:02:28;;;;;;;;;1.00;0.00;;;;;12.06;58.58;100853.53;2045994;28;2742984;-76
2023/03/25 00:03:45;;;;;;;;;0.50;0.50;;;;;12.06;58.72;100849.13;2046749;28;2729444;-76
2023/03/25 00:04:59;;;;;;;;;0.00;0.00;;;;;12.06;58.91;100853.53;2044939;28;2733607;-77
2023/03/25 00:06:15;;;;;;;;;0.00;0.00;;;;;12.05;58.65;100852.66;2022494;28;2727352;-76
2023/03/25 00:07:28;;;;;;;;;1.17;0.67;;;;;12.03;58.57;100851.88;2046265;28;2729492;-76
2023/03/25 00:08:41;;;;;;;;;3.00;1.33;;;;;12.02;58.67;100844.91;2045367;28;2746100;-76
2023/03/25 00:09:54;;;;;;;;;0.33;0.33;;;;;12.01;58.88;100859.84;2022742;28;2734024;-76
2023/03/25 00:11:08;;;;;;;;;4.50;0.50;;;;;12.00;59.24;100854.66;2043817;28;2741975;-76
2023/03/25 00:12:21;;;;;;;;;2.17;1.17;;;;;12.00;59.08;100854.66;2046344;28;2730574;-76
2023/03/25 00:13:34;;;;;;;;;1.67;1.00;;;;;12.00;58.94;100855.47;2045620;28;2723185;-77
2023/03/25 00:14:53;;;;;;;;;1.50;0.00;;;;;11.99;59.21;100864.31;2046875;28;2731929;-77
2023/03/25 00:16:08;;;;;;;;;2.50;0.33;;;;;11.99;59.13;100864.31;2046215;28;2733582;-77
2023/03/25 00:17:25;;;;;;;;;1.67;1.00;;;;;12.00;59.19;100862.53;2046618;28;2735132;-77
2023/03/25 00:18:38;;;;;;;;;0.67;0.67;;;;;11.99;59.31;100860.81;2045367;28;2739853;-76
2023/03/25 00:19:52;;;;;;;;;4.00;1.00;;;;;11.98;59.11;100856.44;2022238;28;2738802;-76
2023/03/25 00:21:09;;;;;;;;;1.00;1.00;;;;;11.98;59.31;100867.00;2021859;28;2739904;-76
2023/03/25 00:22:22;;;;;;;;;1.50;0.00;;;;;11.98;59.12;100859.94;2023551;28;2725262;-76
2023/03/25 00:23:37;;;;;;;;;1.50;1.00;;;;;11.98;59.45;100852.06;2045585;28;2731523;-76
2023/03/25 00:24:50;;;;;;;;;0.33;0.17;;;;;11.98;59.52;100853.81;2045658;28;2728419;-76
2023/03/25 00:26:04;;;;;;;;;3.50;1.67;;;;;11.97;59.24;100860.88;2045918;28;2727380;-76
2023/03/25 00:27:18;;;;;;;;;0.67;0.50;;;;;11.97;59.67;100865.28;2022626;28;2736715;-76
2023/03/25 00:28:34;;;;;;;;;2.17;1.17;;;;;11.97;59.50;100860.03;2022860;28;2740384;-77
2023/03/25 00:29:47;;;;;;;;;1.17;0.67;;;;;11.97;59.54;100860.03;2052574;27;2731489;-77
2023/03/25 00:31:12;;;;;;;;;5.00;2.17;;;;;11.97;59.26;100862.66;2052417;28;2739888;-77
2023/03/25 00:32:28;;;;;;;;;2.17;1.00;;;;;11.98;59.41;100862.59;2046133;28;2736740;-76
2023/03/25 00:33:41;;;;;;;;;1.00;1.00;;;;;11.99;59.80;100863.44;2022203;28;2738835;-76
2023/03/25 00:34:55;;;;;;;;;1.00;0.67;;;;;11.99;59.71;100858.19;2046445;28;2727352;-77
2023/03/25 00:36:12;;;;;;;;;1.00;1.00;;;;;11.99;59.56;100858.19;2022435;28;2739095;-76
2023/03/25 00:37:26;;;;;;;;;3.17;3.17;;;;;11.99;59.75;100856.41;2012758;28;2754436;-76
2023/03/25 00:38:40;;;;;;;;;1.00;1.00;;;;;11.98;59.68;100864.34;2015655;28;2730505;-76
2023/03/25 00:39:53;;;;;;;;;2.83;0.17;;;;;11.96;59.81;100860.91;2038910;28;2725249;-76
2023/03/25 00:41:24;;;;;;;;;2.67;1.00;;;;;11.95;59.52;100862.69;2037030;28;2734661;-76
2023/03/25 00:42:48;;;;;;;;;3.00;1.33;;;;;11.95;59.83;100856.59;2045294;28;2732541;-76
2023/03/25 00:44:03;;;;;;;;;2.17;1.67;;;;;11.94;59.83;100858.34;2022823;28;2734656;-76
2023/03/25 00:45:16;;;;;;;;;2.67;0.67;;;;;11.94;59.69;100861.00;2045917;28;2737768;-77
2023/03/25 00:46:32;;;;;;;;;3.50;1.67;;;;;11.93;59.86;100861.88;2022943;28;2730550;-76
2023/03/25 00:47:45;;;;;;;;;2.50;1.00;;;;;11.93;60.17;100864.53;2054065;27;2739833;-76
2023/03/25 00:48:59;;;;;;;;;1.83;1.33;;;;;11.92;60.11;100861.06;2024750;27;2732569;-76
2023/03/25 00:50:10;;;;;;;;;5.33;2.00;;;;;11.93;60.43;100854.00;1995131;28;2752345;-76
2023/03/25 00:51:24;;;;;;;;;1.20;0.60;;;;;11.95;59.89;100861.84;2037728;28;2740892;-76
2023/03/25 00:52:37;;;;;;;;;2.33;0.67;;;;;11.94;60.09;100850.44;2045533;28;2728387;-76
2023/03/25 00:53:53;;;;;;;;;1.67;0.67;;;;;11.96;60.06;100863.56;2023014;28;2736751;-76
2023/03/25 00:55:07;;;;;;;;;2.83;1.00;;;;;11.95;60.06;100865.31;2022662;28;2738788;-76
2023/03/25 00:56:22;;;;;;;;;1.00;1.00;;;;;11.96;60.26;100842.47;2046078;28;2728430;-76
2023/03/25 00:57:35;;;;;;;;;1.17;1.17;;;;;11.95;60.23;100856.59;2044434;28;2733606;-76
2023/03/25 00:58:49;;;;;;;;;4.00;1.83;;;;;11.94;60.22;100861.00;2022000;28;2737101;-76
2023/03/25 01:00:08;;;;;;;;;1.33;1.00;;;;;11.93;60.36;100859.25;2021847;28;2739833;-76
2023/03/25 01:01:27;;;;;;;;;0.67;0.67;;;;;11.93;60.36;100860.13;2015398;28;2736732;-77
2023/03/25 01:02:44;;;;;;;;;2.83;1.50;;;;;11.93;60.67;100852.22;2039470;28;2735678;-76
2023/03/25 01:03:58;;;;;;;;;2.83;1.00;;;;;11.93;60.67;100854.00;2022370;28;2726331;-77
2023/03/25 01:05:12;;;;;;;;;4.83;2.00;;;;;11.95;60.64;100859.22;2045665;28;2734689;-76
2023/03/25 01:06:31;;;;;;;;;7.17;1.00;;;;;11.95;60.50;100852.16;2022270;28;2733054;-76
2023/03/25 01:07:44;;;;;;;;;3.67;1.83;;;;;11.97;60.52;100860.88;2021420;28;2739836;-77
2023/03/25 01:08:59;;;;;;;;;4.33;1.00;;;;;11.98;60.49;100859.09;2021702;28;2731508;-76
2023/03/25 01:10:12;;;;;;;;;3.83;1.17;;;;;11.98;60.75;100856.44;2044813;28;2750285;-76
2023/03/25 01:11:29;;;;;;;;;4.00;2.00;;;;;11.98;60.69;100846.78;2021087;28;2737781;-77
2023/03/25 01:12:42;;;;;;;;;1.83;1.67;;;;;11.98;60.83;100843.28;2045769;28;2739861;-77
2023/03/25 01:13:58;;;;;;;;;1.83;0.50;;;;;11.98;60.83;100845.91;2021414;28;2736724;-76
2023/03/25 01:15:11;;;;;;;;;3.67;2.17;;;;;11.98;60.65;100856.44;2045166;28;2745064;-76
2023/03/25 01:16:25;;;;;;;;;2.33;1.50;;;;;11.98;60.59;100856.44;2022509;28;2743005;-77
2023/03/25 01:17:38;;;;;;;;;3.33;1.00;;;;;11.99;60.65;100847.66;2021621;28;2738858;-76
2023/03/25 01:18:53;;;;;;;;;5.50;1.33;;;;;11.99;60.93;100847.66;2021076;28;2735754;-77
2023/03/25 01:20:10;;;;;;;;;2.83;1.00;;;;;12.00;61.11;100854.66;2022322;28;2737757;-76
2023/03/25 01:21:23;;;;;;;;;7.67;1.83;;;;;12.01;61.02;100856.34;2021461;28;2750269;-77
2023/03/25 01:22:36;;;;;;;;;2.00;1.00;;;;;12.00;61.29;100854.66;2021442;28;2739844;-76
2023/03/25 01:23:49;;;;;;;;;1.67;1.00;;;;;12.01;61.03;100861.63;2029614;28;2722170;-76
2023/03/25 01:25:03;;;;;;;;;4.00;1.83;;;;;12.02;61.06;100866.84;2045193;28;2734665;-76
2023/03/25 01:26:17;;;;;;;;;1.83;1.83;;;;;12.04;61.25;100869.41;2045031;28;2736735;-76
2023/03/25 01:27:30;;;;;;;;;1.83;1.00;;;;;12.04;61.22;100867.66;2020657;28;2746107;-76
2023/03/25 01:28:44;;;;;;;;;5.17;1.00;;;;;12.06;61.29;100853.53;2027338;28;2734652;-77
2023/03/25 01:29:57;;;;;;;;;2.33;0.83;;;;;12.07;61.33;100858.78;2027352;28;2727338;-76
2023/03/25 01:31:13;;;;;;;;;2.00;1.83;;;;;12.07;61.12;100856.13;2041083;28;2729459;-76
2023/03/25 01:32:28;;;;;;;;;0.33;0.33;;;;;12.08;61.26;100849.94;2022060;28;2730526;-76
2023/03/25 01:33:41;;;;;;;;;3.33;2.83;;;;;12.09;60.91;100849.03;2044062;28;2738894;-76
2023/03/25 01:34:55;;;;;;;;;2.00;0.00;;;;;12.09;61.33;100856.94;2033910;27;2731574;-76
2023/03/25 01:36:11;;;;;;;;;3.00;1.00;;;;;12.10;61.02;100857.78;2034797;27;2737805;-77
2023/03/25 01:37:26;;;;;;;;;1.83;1.33;;;;;12.10;61.32;100849.88;2045342;28;2728390;-76
2023/03/25 01:38:40;;;;;;;;;4.17;1.00;;;;;12.09;61.20;100849.03;2022977;28;2722506;-76
2023/03/25 01:39:54;;;;;;;;;2.50;0.17;;;;;12.10;61.29;100857.78;2022226;28;2741936;-76
2023/03/25 01:41:09;;;;;;;;;1.00;0.00;;;;;12.10;61.35;100856.00;2022880;28;2725314;-76
2023/03/25 01:42:22;;;;;;;;;0.00;0.00;;;;;12.10;61.35;100847.25;2046608;28;2725297;-76
2023/03/25 01:43:35;;;;;;;;;3.00;1.50;;;;;12.09;61.26;100846.41;2043938;28;2735678;-76
2023/03/25 01:44:51;;;;;;;;;3.67;1.83;;;;;12.09;61.39;100843.75;2020285;28;2730470;-77
2023/03/25 01:46:05;;;;;;;;;4.17;1.17;;;;;12.09;60.84;100842.88;2022500;28;2735698;-76
2023/03/25 01:47:18;;;;;;;;;2.33;0.50;;;;;12.10;61.08;100836.72;2043455;28;2736061;-76
2023/03/25 01:48:36;;;;;;;;;3.00;1.67;;;;;12.09;61.47;100833.22;2045249;28;2733619;-76
2023/03/25 01:49:49;;;;;;;;;1.00;1.00;;;;;12.09;61.11;100827.94;2022463;28;2729433;-76
2023/03/25 01:51:25;;;;;;;;;0.33;0.33;;;;;12.08;61.41;100820.94;2044165;28;2723226;-76
2023/03/25 01:52:42;;;;;;;;;5.33;1.83;;;;;12.07;61.63;100827.16;2040884;28;2747132;-76
2023/03/25 01:53:56;;;;;;;;;4.33;0.67;;;;;12.06;61.64;100828.06;2021901;28;2735678;-76
2023/03/25 01:55:10;;;;;;;;;2.33;0.33;;;;;12.06;61.69;100825.41;2022428;28;2737070;-76
2023/03/25 01:56:30;;;;;;;;;1.33;0.50;;;;;12.07;61.73;100821.03;2021861;28;2737942;-76
2023/03/25 01:57:44;;;;;;;;;1.33;1.17;;;;;12.06;61.50;100825.41;2037660;28;2738800;-76
2023/03/25 01:59:02;;;;;;;;;1.83;1.00;;;;;12.04;61.73;100822.84;2021088;28;2733605;-76
2023/03/25 02:00:17;;;;;;;;;1.00;1.00;;;;;12.04;61.72;100825.50;2045141;28;2741917;-76
2023/03/25 02:01:31;;;;;;;;;3.83;0.83;;;;;12.03;61.69;100820.25;2022365;28;2735698;-76
2023/03/25 02:02:45;;;;;;;;;3.67;1.00;;;;;12.02;61.66;100816.78;2045355;28;2746094;-76
2023/03/25 02:04:08;;;;;;;;;2.83;1.00;;;;;12.00;61.84;100821.22;2022677;28;2728411;-76
2023/03/25 02:05:28;;;;;;;;;1.83;1.83;;;;;12.00;61.96;100815.13;2022165;28;2735702;-76
2023/03/25 02:06:49;;;;;;;;;4.17;1.67;;;;;11.99;61.92;100821.31;2019971;28;2748666;-76
2023/03/25 02:08:04;;;;;;;;;4.50;1.67;;;;;11.98;61.87;100816.94;2021838;28;2744067;-76
2023/03/25 02:09:21;;;;;;;;;1.50;0.67;;;;;11.98;61.74;100819.56;2029259;27;2728402;-76
2023/03/25 02:10:36;;;;;;;;;3.67;1.50;;;;;11.97;61.65;100818.75;2047765;27;2741948;-76
2023/03/25 02:11:53;;;;;;;;;1.67;0.83;;;;;11.97;61.80;100815.25;2030157;28;2731571;-77
2023/03/25 02:13:06;;;;;;;;;5.50;1.00;;;;;11.98;62.02;100819.56;2045583;28;2728414;-76
2023/03/25 02:14:23;;;;;;;;;3.33;1.83;;;;;11.96;61.96;100816.16;2021062;28;2744520;-76
2023/03/25 02:15:50;;;;;;;;;1.67;0.50;;;;;11.97;62.04;100820.50;2021794;28;2731507;-76
2023/03/25 02:17:41;;;;;;;;;2.83;1.67;;;;;11.96;62.42;100821.41;2043337;28;2749245;-77
2023/03/25 02:19:25;;;;;;;;;1.67;1.50;;;;;11.96;62.43;100813.50;2045861;28;2727356;-77
2023/03/25 02:20:56;;;;;;;;;2.00;1.33;;;;;11.95;62.88;100814.44;2021413;28;2741980;-76
2023/03/25 02:22:36;;;;;;;;;1.83;1.67;;;;;11.94;62.44;100816.22;2043859;28;2739859;-76
2023/03/25 02:24:18;;;;;;;;;4.17;2.83;;;;;11.93;62.43;100811.84;2043824;28;2748174;-76
2023/03/25 02:25:50;;;;;;;;;4.50;1.17;;;;;11.94;62.24;100813.56;2022012;28;2730541;-76
2023/03/25 02:27:13;;;;;;;;;2.67;2.00;;;;;11.93;62.45;100807.44;2020749;28;2740475;-76
2023/03/25 02:28:35;;;;;;;;;1.67;1.17;;;;;11.95;62.36;100814.44;2048019;28;2734635;-76
2023/03/25 02:29:57;;;;;;;;;5.67;1.17;;;;;11.96;62.55;100813.50;2027168;28;2736720;-76
2023/03/25 02:31:31;;;;;;;;;0.67;0.67;;;;;11.97;62.77;100809.97;2046155;28;2733607;-76
2023/03/25 02:33:21;;;;;;;;;3.17;1.17;;;;;11.95;62.69;100802.09;2044135;28;2746125;-76
2023/03/25 02:35:01;;;;;;;;;3.33;1.00;;;;;11.96;62.69;100805.59;2036900;27;2746090;-76
2023/03/25 02:36:48;;;;;;;;;2.00;1.50;;;;;11.92;62.78;100800.47;2022526;27;2737801;-76
2023/03/25 02:38:12;;;;;;;;;7.17;2.33;;;;;11.91;62.57;100803.16;2035542;28;2746079;-76
2023/03/25 02:39:39;;;;;;;;;1.50;0.00;;;;;11.91;62.72;100800.50;2013387;28;2737203;-76
2023/03/25 02:41:03;;;;;;;;;2.00;1.00;;;;;11.91;62.46;100797.88;2037999;28;2734660;-76
2023/03/25 02:42:19;;;;;;;;;7.33;2.83;;;;;11.90;62.61;100790.91;2035329;27;2745045;-76
2023/03/25 02:43:39;;;;;;;;;0.67;0.00;;;;;11.89;62.99;100789.19;2034902;27;2733603;-76
2023/03/25 02:45:14;;;;;;;;;2.17;1.33;;;;;11.88;63.02;100790.94;2025301;28;2733610;-76
2023/03/25 02:46:30;;;;;;;;;2.33;1.00;;;;;11.89;63.04;100802.34;2036506;28;2732913;-76
2023/03/25 02:47:49;;;;;;;;;2.67;1.67;;;;;11.87;62.75;100794.53;2008195;28;2737873;-76
2023/03/25 02:49:12;;;;;;;;;3.17;0.83;;;;;11.87;62.71;100791.88;2044760;28;2738825;-76
2023/03/25 02:50:40;;;;;;;;;2.17;1.33;;;;;11.87;62.84;100791.88;2021717;28;2732573;-76
2023/03/25 02:52:24;;;;;;;;;4.33;3.00;;;;;11.88;62.66;100796.22;2021436;28;2752388;-76
2023/03/25 02:53:40;;;;;;;;;3.17;1.00;;;;;11.88;62.91;100796.22;2011109;28;2732569;-76
2023/03/25 02:55:00;;;;;;;;;3.67;1.50;;;;;11.88;62.68;100790.09;2045695;28;2732566;-76
2023/03/25 02:56:16;;;;;;;;;6.50;1.33;;;;;11.87;62.79;100797.16;2019876;28;2733615;-76
2023/03/25 02:57:34;;;;;;;;;3.50;1.33;;;;;11.87;62.78;100791.88;2020866;28;2737741;-76
2023/03/25 02:58:50;;;;;;;;;1.50;1.17;;;;;11.87;63.07;100793.66;2021535;28;2736748;-76
2023/03/25 03:00:14;;;;;;;;;2.33;0.00;;;;;11.87;62.92;100789.25;2045419;28;2735690;-76
2023/03/25 03:01:27;;;;;;;;;4.00;1.00;;;;;11.86;62.96;100790.16;2020303;28;2742050;-76
2023/03/25 03:02:58;;;;;;;;;7.17;1.67;;;;;11.86;63.20;100792.78;2013800;28;2739937;-76
2023/03/25 03:04:11;;;;;;;;;3.83;2.33;;;;;11.86;63.09;100787.53;2025109;28;2752341;-76
2023/03/25 03:05:33;;;;;;;;;1.50;0.83;;;;;11.87;63.02;100796.28;2028814;27;2741997;-76
2023/03/25 03:06:46;;;;;;;;;3.00;1.00;;;;;11.85;63.01;100785.81;2021250;28;2734629;-76
2023/03/25 03:08:18;;;;;;;;;3.50;1.33;;;;;11.86;63.12;100792.78;2028251;28;2741928;-76
2023/03/25 03:09:41;;;;;;;;;3.17;0.83;;;;;11.86;63.05;100798.06;2021028;28;2738819;-76
2023/03/25 03:11:01;;;;;;;;;6.50;1.00;;;;;11.86;63.32;100795.41;2045539;28;2735697;-76
2023/03/25 03:12:41;;;;;;;;;0.67;0.50;;;;;11.88;63.19;100798.00;2022025;28;2727416;-76
2023/03/25 03:13:56;;;;;;;;;3.33;1.50;;;;;11.89;63.22;100800.59;2060524;27;2734649;-76
2023/03/25 03:15:36;;;;;;;;;3.17;1.33;;;;;11.89;63.36;100800.59;2048875;28;2751314;-76
2023/03/25 03:17:20;;;;;;;;;4.67;1.00;;;;;11.91;63.07;100800.50;2039209;28;2734621;-76
2023/03/25 03:19:01;;;;;;;;;6.17;1.50;;;;;11.93;63.19;100798.69;2032414;27;2754899;-76
2023/03/25 03:20:32;;;;;;;;;4.83;0.67;;;;;11.92;63.31;100800.47;2019824;28;2731501;-76
2023/03/25 03:22:15;;;;;;;;;2.67;1.33;;;;;11.92;63.30;100795.22;2045187;28;2734647;-76
2023/03/25 03:23:41;;;;;;;;;2.83;0.50;;;;;11.91;63.21;100788.22;2021295;28;2730474;-76
2023/03/25 03:25:22;;;;;;;;;4.50;2.00;;;;;11.91;63.26;100795.25;2015645;28;2741976;-76
2023/03/25 03:26:52;;;;;;;;;4.50;1.33;;;;;11.91;63.63;100793.47;2044048;28;2740890;-76
2023/03/25 03:28:29;;;;;;;;;5.50;1.33;;;;;11.93;63.03;100796.03;2021302;28;2738800;-76
2023/03/25 03:29:51;;;;;;;;;2.50;1.50;;;;;11.92;63.50;100800.47;2021206;28;2733614;-76
2023/03/25 03:31:16;;;;;;;;;2.33;2.00;;;;;11.91;63.12;100797.88;2021679;28;2737790;-76
2023/03/25 03:32:40;;;;;;;;;3.50;2.00;;;;;11.91;63.07;100806.66;2021942;28;2732897;-76
2023/03/25 03:34:01;;;;;;;;;3.33;1.00;;;;;11.91;63.05;100798.75;2045198;28;2735125;-76
2023/03/25 03:35:30;;;;;;;;;2.67;0.67;;;;;11.91;63.07;100809.28;2044863;28;2741944;-76
2023/03/25 03:36:49;;;;;;;;;5.50;1.50;;;;;11.92;63.20;100815.41;2043912;28;2732580;-76
2023/03/25 03:38:10;;;;;;;;;2.67;1.67;;;;;11.92;63.09;100808.38;2038274;28;2728406;-76
2023/03/25 03:39:35;;;;;;;;;3.17;1.67;;;;;11.94;63.01;100816.22;2014792;28;2730485;-76
2023/03/25 03:40:54;;;;;;;;;2.50;1.50;;;;;11.93;62.93;100807.44;2044792;28;2735705;-76
2023/03/25 03:42:23;;;;;;;;;4.67;3.00;;;;;11.95;63.01;100804.75;2021297;28;2748658;-76
2023/03/25 03:43:46;;;;;;;;;2.33;0.33;;;;;11.95;62.84;100807.38;2020681;28;2737754;-76
2023/03/25 03:45:11;;;;;;;;;1.67;0.67;;;;;11.94;62.71;100808.31;2020881;28;2739876;-76
2023/03/25 03:46:36;;;;;;;;;2.50;1.00;;;;;11.96;62.51;100805.59;2044392;28;2727355;-76
2023/03/25 03:47:54;;;;;;;;;2.50;1.00;;;;;11.97;62.83;100815.25;2021701;28;2732604;-76
2023/03/25 03:49:16;;;;;;;;;0.17;0.00;;;;;11.96;62.84;100805.59;2024038;28;2700251;-76
2023/03/25 03:50:35;;;;;;;;;5.33;1.00;;;;;11.98;62.79;100811.66;2044584;28;2738186;-76
2023/03/25 03:51:57;;;;;;;;;3.50;0.00;;;;;11.97;62.67;100813.47;2021080;28;2746102;-76
2023/03/25 03:53:16;;;;;;;;;3.33;0.00;;;;;11.97;62.32;100812.59;2044931;28;2737758;-76
2023/03/25 03:54:37;;;;;;;;;1.67;0.17;;;;;11.97;62.35;100813.47;2045246;28;2724209;-76
2023/03/25 03:56:05;;;;;;;;;0.67;0.67;;;;;12.00;62.51;100815.13;2041373;28;2739845;-76
2023/03/25 03:57:31;;;;;;;;;2.17;2.17;;;;;11.99;62.32;100813.41;2043999;28;2752321;-76
2023/03/25 03:58:45;;;;;;;;;0.83;0.83;;;;;12.00;62.23;100820.41;2021218;28;2746134;-77
2023/03/25 04:00:08;;;;;;;;;3.83;0.50;;;;;11.98;62.05;100809.03;2021117;28;2746078;-76
2023/03/25 04:01:35;;;;;;;;;2.67;0.17;;;;;11.98;62.15;100815.16;2021804;28;2733623;-76
2023/03/25 04:03:09;;;;;;;;;1.00;0.67;;;;;11.98;62.32;100809.91;2029813;27;2735097;-76
2023/03/25 04:04:25;;;;;;;;;1.17;1.17;;;;;11.98;62.16;100811.66;2043785;28;2735698;-76
2023/03/25 04:05:46;;;;;;;;;0.83;0.50;;;;;11.97;62.03;100817.88;2021168;28;2731500;-76
2023/03/25 04:07:13;;;;;;;;;0.00;0.00;;;;;11.95;62.06;100817.06;2044224;28;2734641;-76
2023/03/25 04:08:33;;;;;;;;;2.50;0.00;;;;;11.95;61.71;100824.97;2023675;28;2726291;-76
2023/03/25 04:10:01;;;;;;;;;3.67;0.83;;;;;11.93;61.82;100812.72;2045722;28;2746098;-76
2023/03/25 04:11:21;;;;;;;;;2.00;0.67;;;;;11.93;61.77;100817.13;2045575;28;2737782;-76
2023/03/25 04:12:39;;;;;;;;;3.00;0.50;;;;;11.93;61.93;100815.34;2022866;28;2739873;-76
2023/03/25 04:13:58;;;;;;;;;2.00;0.17;;;;;11.92;61.92;100820.69;2022070;28;2735689;-77
2023/03/25 04:15:11;;;;;;;;;1.83;0.67;;;;;11.91;61.77;100830.34;2039417;28;2732557;-76
2023/03/25 04:16:25;;;;;;;;;1.33;0.67;;;;;11.91;61.84;100830.34;2045402;28;2741936;-76
2023/03/25 04:17:38;;;;;;;;;2.50;0.17;;;;;11.91;61.88;100830.34;2022745;28;2736712;-76
2023/03/25 04:18:52;;;;;;;;;0.67;0.00;;;;;11.92;61.93;100832.09;2023791;28;2727401;-76
2023/03/25 04:20:09;;;;;;;;;2.83;0.00;;;;;11.92;61.82;100821.56;2046251;28;2725305;-76
2023/03/25 04:21:24;;;;;;;;;3.83;0.00;;;;;11.93;61.94;100830.28;2046383;28;2725263;-76
2023/03/25 04:22:37;;;;;;;;;1.00;0.00;;;;;11.92;61.92;100832.09;2045749;28;2735678;-76
2023/03/25 04:23:50;;;;;;;;;1.00;0.50;;;;;11.93;61.54;100831.16;2046070;28;2731488;-76
2023/03/25 04:25:07;;;;;;;;;0.67;0.67;;;;;11.92;61.77;100821.56;2045889;28;2725290;-76
2023/03/25 04:26:20;;;;;;;;;0.17;0.00;;;;;11.92;62.12;100829.44;2045941;28;2731579;-76
2023/03/25 04:27:36;;;;;;;;;0.00;0.00;;;;;11.93;61.91;100825.88;2023145;28;2725278;-76
2023/03/25 04:28:49;;;;;;;;;1.00;1.00;;;;;11.93;61.98;100833.78;2046534;28;2733586;-76
2023/03/25 04:30:08;;;;;;;;;0.83;0.17;;;;;11.95;61.62;100835.50;2022204;28;2738822;-76
2023/03/25 04:31:21;;;;;;;;;1.83;0.67;;;;;11.95;61.69;100840.78;2023297;28;2731501;-76
2023/03/25 04:32:34;;;;;;;;;1.00;0.50;;;;;11.92;62.00;100834.72;2022424;28;2733623;-77
2023/03/25 04:33:49;;;;;;;;;1.50;1.00;;;;;11.92;61.91;100836.50;2045056;28;2738799;-76
2023/03/25 04:35:03;;;;;;;;;2.67;0.67;;;;;11.92;61.72;100841.75;2046107;28;2737796;-76
2023/03/25 04:36:16;;;;;;;;;3.17;0.67;;;;;11.92;61.80;100834.72;2046035;28;2735729;-76
2023/03/25 04:37:32;;;;;;;;;0.17;0.17;;;;;11.92;61.96;100845.25;2022592;27;2722144;-76
2023/03/25 04:38:45;;;;;;;;;3.33;0.50;;;;;11.90;62.05;100833.88;2046503;28;2733618;-76
2023/03/25 04:40:00;;;;;;;;;1.50;0.00;;;;;11.92;61.71;100847.88;2021550;28;2734645;-76
2023/03/25 04:41:13;;;;;;;;;2.00;0.67;;;;;11.92;61.94;100847.88;2022614;28;2735762;-76
2023/03/25 04:42:36;;;;;;;;;2.50;0.00;;;;;11.93;61.86;100846.94;2046458;28;2725300;-76
2023/03/25 04:43:49;;;;;;;;;3.00;0.00;;;;;11.91;61.93;100851.44;2046009;28;2733599;-76
2023/03/25 04:45:06;;;;;;;;;1.67;0.50;;;;;11.93;61.75;100854.00;2045284;28;2734660;-76
2023/03/25 04:46:19;;;;;;;;;2.17;0.17;;;;;11.94;61.96;100868.91;2022822;28;2732602;-76
2023/03/25 04:47:33;;;;;;;;;1.00;1.00;;;;;11.94;62.26;100863.63;2045492;28;2727366;-76
2023/03/25 04:48:46;;;;;;;;;2.33;1.00;;;;;11.97;61.92;100870.56;2044989;28;2741948;-76
2023/03/25 04:50:00;;;;;;;;;3.00;0.00;;;;;11.97;61.92;100863.53;2022907;28;2731583;-76
2023/03/25 04:51:14;;;;;;;;;0.00;0.00;;;;;11.98;61.89;100875.75;2045491;28;2729468;-76
2023/03/25 04:52:27;;;;;;;;;0.00;0.00;;;;;11.98;61.74;100862.59;2038657;28;2727337;-76
2023/03/25 04:53:41;;;;;;;;;2.33;0.00;;;;;11.99;61.80;100869.59;2044661;28;2732545;-76
2023/03/25 04:54:55;;;;;;;;;2.00;1.00;;;;;11.99;61.71;100864.31;2021833;28;2736731;-76
2023/03/25 04:56:15;;;;;;;;;1.67;0.33;;;;;12.00;61.67;100862.53;2023394;28;2727390;-76
2023/03/25 04:57:30;;;;;;;;;1.67;0.00;;;;;12.01;61.91;100864.25;2022582;28;2737760;-76
2023/03/25 04:58:44;;;;;;;;;2.00;0.50;;;;;12.01;61.79;100872.16;2044764;28;2728390;-76
2023/03/25 04:59:57;;;;;;;;;0.00;0.00;;;;;12.01;61.53;100864.25;2023108;28;2733594;-77
2023/03/25 05:01:21;;;;;;;;;2.17;1.00;;;;;12.01;61.64;100870.38;2045425;28;2729416;-76
2023/03/25 05:02:34;;;;;;;;;1.17;1.17;;;;;12.00;61.64;100871.28;2021801;28;2732569;-76
2023/03/25 05:03:49;;;;;;;;;0.67;0.67;;;;;11.99;61.65;100869.59;2021084;28;2723175;-76
2023/03/25 05:05:03;;;;;;;;;3.17;0.83;;;;;11.98;61.64;100864.34;2044665;28;2742974;-76
2023/03/25 05:06:16;;;;;;;;;1.00;0.33;;;;;11.98;61.53;100872.25;2022136;28;2737762;-76
2023/03/25 05:07:30;;;;;;;;;1.33;0.33;;;;;11.97;61.61;100874.06;2045941;28;2733634;-76
2023/03/25 05:08:43;;;;;;;;;0.00;0.00;;;;;11.97;61.76;100865.28;2046167;28;2733647;-76
2023/03/25 05:09:56;;;;;;;;;2.00;0.50;;;;;11.97;61.59;100865.28;2022755;28;2734689;-76
2023/03/25 05:11:10;;;;;;;;;1.17;0.33;;;;;11.97;61.37;100876.69;2022313;28;2727326;-76
2023/03/25 05:12:23;;;;;;;;;2.17;0.00;;;;;11.96;61.72;100868.81;2038486;28;2723263;-76
2023/03/25 05:13:36;;;;;;;;;0.00;0.00;;;;;11.97;61.71;100873.19;2044899;28;2734008;-76
2023/03/25 05:14:49;;;;;;;;;1.33;1.00;;;;;11.98;61.78;100873.13;2021639;28;2735675;-76
2023/03/25 05:16:03;;;;;;;;;1.17;0.00;;;;;11.98;61.46;100862.59;2045200;28;2735678;-77
2023/03/25 05:17:16;;;;;;;;;2.50;0.33;;;;;11.98;61.32;100872.25;2022419;28;2738305;-76
2023/03/25 05:18:30;;;;;;;;;3.00;0.83;;;;;11.98;61.51;100885.44;2044723;28;2728386;-76
2023/03/25 05:19:43;;;;;;;;;1.50;0.33;;;;;11.99;61.19;100884.53;2021202;28;2727370;-76
2023/03/25 05:20:56;;;;;;;;;2.00;0.17;;;;;11.97;61.29;100871.41;2045907;28;2735710;-76
2023/03/25 05:22:09;;;;;;;;;0.67;0.00;;;;;11.97;61.03;100883.72;2022030;28;2734652;-76
2023/03/25 05:23:23;;;;;;;;;1.00;1.00;;;;;11.97;61.50;100875.81;2045592;28;2724292;-76
2023/03/25 05:24:36;;;;;;;;;0.50;0.33;;;;;11.97;61.38;100883.72;2045302;28;2732593;-76
2023/03/25 05:25:50;;;;;;;;;1.00;0.00;;;;;11.97;61.17;100881.09;2044112;28;2728382;-76
2023/03/25 05:27:03;;;;;;;;;0.83;0.83;;;;;11.97;60.95;100886.38;2045620;28;2732649;-75
2023/03/25 05:28:17;;;;;;;;;1.50;0.00;;;;;11.96;61.26;100885.50;2045381;28;2729459;-75
2023/03/25 05:29:32;;;;;;;;;1.00;1.00;;;;;11.97;61.25;100886.38;2045461;28;2739169;-76
2023/03/25 05:30:46;;;;;;;;;1.17;0.00;;;;;11.96;61.32;100885.50;2045633;28;2735682;-75
2023/03/25 05:32:00;;;;;;;;;0.67;0.33;;;;;11.96;61.44;100890.75;2028053;28;2729450;-75
2023/03/25 05:33:15;;;;;;;;;0.83;0.83;;;;;11.97;61.10;100881.97;2048524;27;2733614;-76
2023/03/25 05:34:29;;;;;;;;;0.17;0.00;;;;;11.97;61.42;100875.81;2022272;28;2725262;-77
2023/03/25 05:35:43;;;;;;;;;1.00;0.00;;;;;11.98;61.07;100888.06;2045316;28;2733584;-76
2023/03/25 05:36:57;;;;;;;;;5.50;0.67;;;;;11.97;61.15;100886.38;2044946;28;2748253;-76
2023/03/25 05:38:11;;;;;;;;;2.67;0.50;;;;;11.99;61.33;100889.78;2044896;28;2727372;-76
2023/03/25 05:39:24;;;;;;;;;0.67;0.00;;;;;11.99;61.14;100893.28;2022915;28;2730494;-76
2023/03/25 05:40:39;;;;;;;;;2.67;0.67;;;;;12.01;61.37;100903.75;2045130;28;2746110;-76
2023/03/25 05:41:54;;;;;;;;;1.00;0.00;;;;;12.03;61.22;100909.81;2022453;28;2733599;-76
2023/03/25 05:43:07;;;;;;;;;1.00;1.00;;;;;12.02;60.87;100916.03;2053393;28;2733617;-76
2023/03/25 05:44:20;;;;;;;;;2.00;0.00;;;;;12.02;60.81;100914.25;2029415;28;2722168;-76
2023/03/25 05:45:37;;;;;;;;;0.33;0.00;;;;;12.01;60.93;100909.91;2053776;28;2731531;-76
2023/03/25 05:46:50;;;;;;;;;2.83;1.67;;;;;12.01;60.80;100911.66;2027986;28;2739853;-76
2023/03/25 05:48:03;;;;;;;;;2.17;1.00;;;;;12.03;60.89;100917.72;2022292;28;2733579;-76
2023/03/25 05:49:16;;;;;;;;;0.67;0.00;;;;;12.02;61.05;100919.53;2045860;28;2733639;-76
2023/03/25 05:50:30;;;;;;;;;4.33;0.67;;;;;12.04;60.96;100924.75;2045129;28;2744010;-76
2023/03/25 05:51:43;;;;;;;;;4.17;0.33;;;;;12.05;61.39;100918.53;2021150;28;2735710;-76
2023/03/25 05:52:58;;;;;;;;;0.83;0.83;;;;;12.06;61.01;100922.91;2038091;28;2740913;-76
2023/03/25 05:54:11;;;;;;;;;2.00;0.33;;;;;12.08;60.83;100923.69;2022216;28;2722129;-76
2023/03/25 05:55:25;;;;;;;;;0.83;0.17;;;;;12.09;60.91;100924.56;2045503;28;2727368;-76
2023/03/25 05:56:40;;;;;;;;;1.67;0.33;;;;;12.08;60.68;100928.97;2045014;28;2741947;-76